Time;durP1;ratioP1;P1;durP2;ratioP2;P2;SDS_P1;SDS_P2;PMS_P1;PMS_P2;Temp;Humidity;BMP_temperature;BMP_pressure;BME280_temperature;BME280_humidity;BME280_pressure;Samples;Min_cycle;Max_cycle;Signal;HPM_P1;HPM_P2
2022/12/28 00:00:20;;;;;;;4.75;1.52;;;5.20;99.90;;;;;;4989479;28;20044;-78
2022/12/28 00:02:45;;;;;;;2.72;0.93;;;5.20;99.90;;;;;;4984009;28;20065;-77
2022/12/28 00:05:11;;;;;;;2.90;0.98;;;5.20;99.90;;;;;;4981382;28;20064;-77
2022/12/28 00:07:36;;;;;;;2.97;0.95;;;5.30;99.90;;;;;;4987319;28;20768;-78
2022/12/28 00:10:02;;;;;;;8.73;1.70;;;5.30;99.90;;;;;;4991469;28;20059;-78
2022/12/28 00:12:28;;;;;;;4.95;1.05;;;5.30;99.90;;;;;;5007218;28;20080;-78
2022/12/28 00:14:53;;;;;;;2.45;1.00;;;5.30;99.90;;;;;;4985644;28;20044;-78
2022/12/28 00:17:19;;;;;;;5.45;1.25;;;5.30;99.90;;;;;;4993132;28;20117;-78
2022/12/28 00:19:45;;;;;;;2.63;0.85;;;5.30;99.90;;;;;;4985978;28;20048;-78
2022/12/28 00:22:10;;;;;;;0.63;0.40;;;5.40;99.90;;;;;;4985734;28;20030;-78
2022/12/28 00:24:36;;;;;;;4.65;0.93;;;5.40;99.90;;;;;;4987925;28;20034;-78
2022/12/28 00:27:01;;;;;;;1.55;0.70;;;5.40;99.90;;;;;;4985604;28;20486;-77
2022/12/28 00:29:27;;;;;;;2.33;0.88;;;5.50;99.90;;;;;;4970996;28;20049;-77
2022/12/28 00:31:52;;;;;;;2.55;1.20;;;5.50;99.90;;;;;;4994690;28;20025;-78
2022/12/28 00:34:18;;;;;;;0.25;0.20;;;5.50;99.90;;;;;;5005259;28;20108;-79
2022/12/28 00:36:43;;;;;;;1.73;1.00;;;5.60;99.90;;;;;;4987706;28;20038;-78
2022/12/28 00:39:09;;;;;;;2.90;0.80;;;5.60;99.90;;;;;;4986100;28;20028;-78
2022/12/28 00:41:34;;;;;;;6.15;0.90;;;5.60;99.90;;;;;;4985721;28;20040;-78
2022/12/28 00:44:00;;;;;;;5.70;1.10;;;5.60;99.90;;;;;;4986608;28;20026;-78
2022/12/28 00:46:25;;;;;;;6.30;0.73;;;5.60;99.90;;;;;;4984997;28;20030;-78
2022/12/28 00:48:51;;;;;;;1.92;0.70;;;5.60;99.90;;;;;;5003332;28;20042;-79
2022/12/28 00:51:17;;;;;;;2.85;0.60;;;5.60;99.90;;;;;;4995696;28;20046;-78
2022/12/28 00:53:43;;;;;;;0.17;0.17;;;5.60;99.90;;;;;;4985534;28;20030;-79
2022/12/28 00:56:12;;;;;;;3.47;1.10;;;5.60;99.90;;;;;;4992455;28;20104;-78
2022/12/28 00:58:38;;;;;;;5.55;1.17;;;5.60;99.90;;;;;;4989445;28;20093;-79
2022/12/28 01:01:04;;;;;;;3.22;1.20;;;5.50;99.90;;;;;;5001119;28;20038;-78
2022/12/28 01:03:29;;;;;;;2.45;0.93;;;5.60;99.90;;;;;;4986821;28;20982;-78
2022/12/28 01:05:55;;;;;;;3.22;1.02;;;5.60;99.90;;;;;;4997934;28;20042;-79
2022/12/28 01:08:20;;;;;;;8.55;1.38;;;5.60;99.90;;;;;;4989591;28;20022;-79
2022/12/28 01:10:46;;;;;;;3.08;0.80;;;5.50;99.90;;;;;;4974637;28;20065;-78
2022/12/28 01:13:11;;;;;;;3.85;1.25;;;5.50;99.90;;;;;;4996581;28;20040;-78
2022/12/28 01:15:37;;;;;;;3.83;1.27;;;5.50;99.90;;;;;;4991531;28;20026;-80
2022/12/28 01:18:03;;;;;;;2.67;1.00;;;5.50;99.90;;;;;;4997852;28;20042;-79
2022/12/28 01:20:28;;;;;;;2.05;0.70;;;5.50;99.90;;;;;;4976617;28;20042;-79
2022/12/28 01:22:54;;;;;;;4.70;1.70;;;5.50;99.90;;;;;;4989785;28;20095;-79
2022/12/28 01:25:19;;;;;;;6.20;1.45;;;5.50;99.90;;;;;;4977895;28;20092;-79
2022/12/28 01:27:45;;;;;;;4.72;0.95;;;5.50;99.90;;;;;;5001941;28;20870;-79
2022/12/28 01:30:12;;;;;;;1.85;1.30;;;5.50;99.90;;;;;;4975029;28;20065;-79
2022/12/28 01:32:38;;;;;;;4.40;1.40;;;5.50;99.90;;;;;;4999656;28;20140;-79
2022/12/28 01:35:04;;;;;;;3.03;1.40;;;5.50;99.90;;;;;;4983357;28;20553;-79
2022/12/28 01:37:29;;;;;;;4.18;0.95;;;5.50;99.90;;;;;;4972621;28;20045;-79
2022/12/28 01:39:55;;;;;;;4.15;1.50;;;5.50;99.90;;;;;;5004091;28;20030;-80
2022/12/28 01:42:20;;;;;;;7.80;2.28;;;5.50;99.90;;;;;;4998781;28;20561;-79
2022/12/28 01:44:47;;;;;;;2.03;0.93;;;5.50;99.90;;;;;;4993228;28;20046;-79
2022/12/28 01:47:36;;;;;;;2.70;0.63;;;5.50;99.90;;;;;;4984086;28;20057;-78
2022/12/28 01:50:12;;;;;;;2.90;1.13;;;5.50;99.90;;;;;;4984884;28;20122;-79
2022/12/28 01:52:43;;;;;;;6.47;0.73;;;5.50;99.90;;;;;;4972782;28;20096;-80
2022/12/28 01:55:23;;;;;;;3.47;1.25;;;5.50;99.90;;;;;;4985999;28;20099;-78
2022/12/28 01:58:20;;;;;;;7.38;1.83;;;5.50;99.90;;;;;;5000393;28;20042;-79
2022/12/28 02:00:45;;;;;;;;;;;5.50;99.90;;;;;;4990177;28;20037;-79
2022/12/28 02:03:15;;;;;;;2.10;1.33;;;5.60;99.90;;;;;;5001964;28;19913;-79
2022/12/28 02:05:42;;;;;;;2.38;0.88;;;5.60;99.90;;;;;;4983418;28;20061;-79
2022/12/28 02:08:11;;;;;;;3.53;1.15;;;5.80;99.90;;;;;;4983793;28;20038;-79
2022/12/28 02:10:36;;;;;;;3.55;1.15;;;5.60;99.90;;;;;;4999757;28;20448;-79
2022/12/28 02:13:03;;;;;;;3.70;1.55;;;5.60;99.90;;;;;;4984414;28;20030;-79
2022/12/28 02:15:28;;;;;;;3.47;1.17;;;5.60;99.90;;;;;;4982135;28;20481;-80
2022/12/28 02:17:54;;;;;;;5.10;1.20;;;5.60;99.90;;;;;;4998704;28;20034;-79
2022/12/28 02:20:19;;;;;;;6.00;1.35;;;5.70;99.90;;;;;;5005277;28;20038;-79
2022/12/28 02:23:11;;;;;;;0.95;0.47;;;5.70;99.90;;;;;;4999226;28;20457;-79
2022/12/28 02:25:56;;;;;;;1.15;1.05;;;5.70;99.90;;;;;;5003671;28;20045;-79
2022/12/28 02:28:45;;;;;;;1.45;1.02;;;5.70;99.90;;;;;;5003095;28;20036;-79
2022/12/28 02:31:14;;;;;;;7.05;1.30;;;5.80;99.90;;;;;;4985981;28;20112;-79
2022/12/28 02:33:48;;;;;;;2.80;1.45;;;5.80;99.90;;;;;;4982479;28;20025;-79
2022/12/28 02:36:20;;;;;;;2.97;1.00;;;5.80;99.90;;;;;;4988268;28;20674;-79
2022/12/28 02:38:52;;;;;;;5.70;1.35;;;5.90;99.90;;;;;;4999865;28;20041;-79
2022/12/28 02:41:19;;;;;;;1.15;0.60;;;5.90;99.90;;;;;;4983016;28;20042;-80
2022/12/28 02:43:45;;;;;;;3.22;1.02;;;5.90;99.90;;;;;;5002985;28;20038;-79
2022/12/28 02:52:22;;;;;;;7.30;1.85;;;6.00;99.90;;;;;;4983731;28;20705;-79
2022/12/28 02:58:26;;;;;;;3.58;1.58;;;6.00;99.90;;;;;;4996861;28;20130;-79
2022/12/28 03:01:15;;;;;;;4.22;0.95;;;6.00;99.90;;;;;;4998210;28;20038;-79
2022/12/28 03:03:45;;;;;;;3.50;1.42;;;6.00;99.90;;;;;;4971644;28;20034;-79
2022/12/28 03:09:16;;;;;;;1.13;0.80;;;6.00;99.90;;;;;;4998584;28;20644;-79
2022/12/28 03:11:43;;;;;;;2.33;1.67;;;6.10;99.90;;;;;;4983961;28;20026;-79
2022/12/28 03:14:11;;;;;;;2.20;0.68;;;6.10;99.90;;;;;;4982419;28;20054;-79
2022/12/28 03:33:20;;;;;;;2.08;0.70;;;6.10;99.90;;;;;;4986423;28;20100;-84
2022/12/28 03:35:50;;;;;;;1.48;0.82;;;6.10;99.90;;;;;;5000192;28;20022;-85
2022/12/28 03:38:26;;;;;;;4.57;1.52;;;6.10;99.90;;;;;;4982480;28;20030;-85
2022/12/28 03:40:54;;;;;;;3.95;0.80;;;6.10;99.90;;;;;;4997681;28;20040;-79
2022/12/28 03:43:41;;;;;;;5.13;0.85;;;6.10;99.90;;;;;;4986966;28;20054;-79
2022/12/28 03:46:35;;;;;;;2.67;0.73;;;6.10;99.90;;;;;;4986758;28;20490;-79
2022/12/28 03:49:01;;;;;;;1.70;1.00;;;6.10;99.90;;;;;;4987282;28;20034;-79
2022/12/28 03:51:27;;;;;;;3.92;1.83;;;6.10;99.90;;;;;;5000277;28;20437;-79
2022/12/28 03:53:52;;;;;;;2.92;1.10;;;6.10;99.90;;;;;;5002157;28;20102;-80
2022/12/28 03:56:20;;;;;;;2.28;1.17;;;6.20;99.90;;;;;;4990284;28;24986;-79
2022/12/28 03:58:45;;;;;;;4.30;0.95;;;6.10;99.90;;;;;;4984570;28;20030;-80
2022/12/28 04:01:11;;;;;;;4.80;1.55;;;6.20;99.90;;;;;;5000077;28;20509;-79
2022/12/28 04:03:36;;;;;;;1.23;0.47;;;6.20;99.90;;;;;;5002343;28;20413;-79
2022/12/28 04:06:03;;;;;;;1.80;0.70;;;6.20;99.90;;;;;;4992319;28;20431;-79
2022/12/28 04:08:28;;;;;;;3.83;1.83;;;6.20;99.90;;;;;;4992260;28;20029;-79
2022/12/28 04:10:54;;;;;;;5.55;1.75;;;6.20;99.90;;;;;;4998423;28;20077;-79
2022/12/28 04:13:19;;;;;;;5.75;2.63;;;6.20;99.90;;;;;;4968077;28;20061;-80
2022/12/28 04:15:55;;;;;;;3.33;1.17;;;6.20;99.90;;;;;;5002537;28;20112;-79
2022/12/28 04:18:20;;;;;;;5.88;1.50;;;6.20;99.90;;;;;;5000581;28;20088;-80
2022/12/28 04:20:46;;;;;;;4.40;1.10;;;6.20;99.90;;;;;;4970672;28;20625;-79
2022/12/28 04:23:11;;;;;;;6.28;1.70;;;6.20;99.90;;;;;;4987889;28;20030;-80
2022/12/28 04:25:37;;;;;;;2.50;1.30;;;6.30;99.90;;;;;;4982302;28;20553;-80
2022/12/28 04:28:02;;;;;;;3.00;1.40;;;6.20;99.90;;;;;;4981439;28;20026;-79
2022/12/28 04:30:28;;;;;;;1.60;1.20;;;6.20;99.90;;;;;;4988680;28;20042;-79
2022/12/28 04:32:54;;;;;;;4.82;1.05;;;6.30;99.90;;;;;;4975658;28;20033;-79
2022/12/28 04:35:19;;;;;;;2.38;1.27;;;6.30;99.90;;;;;;4992144;28;20043;-79
2022/12/28 04:37:45;;;;;;;4.38;1.15;;;6.30;99.90;;;;;;4989395;28;20040;-79
2022/12/28 04:40:11;;;;;;;9.98;1.73;;;6.30;99.90;;;;;;4993272;28;20030;-79
2022/12/28 04:42:36;;;;;;;3.65;0.98;;;6.30;99.90;;;;;;4984601;28;20117;-79
2022/12/28 04:45:02;;;;;;;1.80;1.33;;;6.30;99.90;;;;;;4984687;28;20033;-79
2022/12/28 04:47:28;;;;;;;6.35;2.83;;;6.30;99.90;;;;;;4992375;28;20141;-79
2022/12/28 04:49:53;;;;;;;4.15;1.65;;;6.30;99.90;;;;;;4999661;28;20034;-80
2022/12/28 04:52:21;;;;;;;5.47;1.45;;;6.30;99.90;;;;;;4988088;28;20034;-80
2022/12/28 04:54:46;;;;;;;1.88;1.05;;;6.40;99.90;;;;;;5003952;28;20501;-79
2022/12/28 04:57:12;;;;;;;4.28;1.33;;;6.40;99.90;;;;;;4986120;28;20041;-80
2022/12/28 04:59:39;;;;;;;5.43;2.08;;;6.40;99.90;;;;;;4975556;28;20807;-80
2022/12/28 05:02:05;;;;;;;5.70;0.88;;;6.40;99.90;;;;;;4987256;28;20037;-80
2022/12/28 05:04:30;;;;;;;6.38;3.47;;;6.40;99.90;;;;;;5004964;28;20042;-80
2022/12/28 05:06:56;;;;;;;4.07;1.63;;;6.40;99.90;;;;;;4989014;28;20489;-80
2022/12/28 05:09:22;;;;;;;2.22;1.10;;;6.40;99.90;;;;;;4989310;28;20057;-81
2022/12/28 05:11:47;;;;;;;8.57;1.95;;;6.40;99.90;;;;;;5000504;28;20030;-81
2022/12/28 05:14:13;;;;;;;4.53;1.58;;;6.40;99.90;;;;;;5003926;28;20100;-80
2022/12/28 05:16:39;;;;;;;3.85;1.33;;;6.40;99.90;;;;;;4983589;28;20034;-80
2022/12/28 05:19:04;;;;;;;1.45;1.27;;;6.40;99.90;;;;;;4985694;28;20026;-81
2022/12/28 05:21:30;;;;;;;4.28;1.70;;;6.40;99.90;;;;;;4989456;28;20026;-80
2022/12/28 05:23:55;;;;;;;2.88;1.48;;;6.40;99.90;;;;;;4974116;28;24766;-80
2022/12/28 05:26:23;;;;;;;8.85;1.95;;;6.40;99.90;;;;;;4976743;28;20042;-80
2022/12/28 05:28:48;;;;;;;3.92;1.80;;;6.40;99.90;;;;;;4997954;28;20034;-80
2022/12/28 05:31:17;;;;;;;1.98;1.35;;;6.40;99.90;;;;;;5004938;28;20406;-80
2022/12/28 05:33:43;;;;;;;2.13;1.33;;;6.40;99.90;;;;;;4986856;28;20045;-80
2022/12/28 05:36:14;;;;;;;7.28;1.88;;;6.50;99.90;;;;;;4972067;28;20402;-80
2022/12/28 05:38:40;;;;;;;3.95;1.65;;;6.50;99.90;;;;;;4641713;28;9999616;-80
2022/12/28 05:41:16;;;;;;;0.75;0.50;;;6.50;99.90;;;;;;5002378;28;20049;-81
2022/12/28 05:43:42;;;;;;;2.90;1.55;;;6.50;99.90;;;;;;4978119;28;20659;-81
2022/12/28 05:46:09;;;;;;;4.95;2.15;;;6.50;99.90;;;;;;4977219;28;20045;-80
2022/12/28 05:48:36;;;;;;;3.58;1.48;;;6.50;99.90;;;;;;4989644;28;20030;-81
2022/12/28 05:51:03;;;;;;;5.05;1.50;;;6.50;99.90;;;;;;5001464;28;20065;-80
2022/12/28 05:53:29;;;;;;;6.05;2.20;;;6.50;99.90;;;;;;5004720;28;20030;-80
2022/12/28 05:56:05;;;;;;;9.93;1.90;;;6.50;99.90;;;;;;4974617;28;20029;-81
2022/12/28 05:58:30;;;;;;;1.67;1.05;;;6.50;99.90;;;;;;4988725;28;20038;-80
2022/12/28 06:01:12;;;;;;;6.32;2.00;;;6.50;99.90;;;;;;5000027;28;20056;-82
2022/12/28 06:03:38;;;;;;;4.10;1.15;;;6.60;99.90;;;;;;5005580;28;20359;-80
2022/12/28 06:06:08;;;;;;;3.83;1.63;;;6.50;99.90;;;;;;4986404;28;20114;-80
2022/12/28 06:08:34;;;;;;;1.52;0.95;;;6.50;99.90;;;;;;4988555;28;20336;-80
2022/12/28 06:11:01;;;;;;;2.85;1.73;;;6.60;99.90;;;;;;4971233;28;20072;-80
2022/12/28 06:13:27;;;;;;;2.92;1.98;;;6.60;99.90;;;;;;5004006;28;20092;-80
2022/12/28 06:15:52;;;;;;;3.83;1.42;;;6.60;99.90;;;;;;4988032;28;20038;-80
2022/12/28 06:18:18;;;;;;;4.47;2.08;;;6.60;99.90;;;;;;5003752;28;20474;-80
2022/12/28 06:20:44;;;;;;;5.10;1.80;;;6.60;99.90;;;;;;4974684;28;20034;-81
2022/12/28 06:23:09;;;;;;;4.57;1.90;;;6.50;99.90;;;;;;4974930;28;20033;-80
2022/12/28 06:25:36;;;;;;;5.68;2.00;;;6.60;99.90;;;;;;5001222;28;20421;-80
2022/12/28 06:28:02;;;;;;;4.90;1.08;;;6.60;99.90;;;;;;4974952;28;20092;-81
2022/12/28 06:30:27;;;;;;;3.97;1.25;;;6.60;99.90;;;;;;4987518;28;20457;-80
2022/12/28 06:32:55;;;;;;;4.60;1.40;;;6.60;99.90;;;;;;4987491;28;20076;-80
2022/12/28 06:35:20;;;;;;;2.33;1.33;;;6.60;99.90;;;;;;5004335;28;20133;-80
2022/12/28 06:37:47;;;;;;;2.45;1.77;;;6.70;99.90;;;;;;4986792;28;20109;-80
2022/12/28 06:40:12;;;;;;;1.20;0.60;;;6.70;99.90;;;;;;4985235;28;20030;-81
2022/12/28 06:42:38;;;;;;;1.98;1.35;;;6.70;99.90;;;;;;4985738;28;20420;-80
2022/12/28 06:45:04;;;;;;;0.95;0.70;;;6.70;99.90;;;;;;4993856;28;20071;-80
2022/12/28 06:47:29;;;;;;;5.53;0.98;;;6.80;99.90;;;;;;4996365;28;20622;-80
2022/12/28 06:49:55;;;;;;;3.65;1.38;;;6.80;99.90;;;;;;5003697;28;20030;-81
2022/12/28 06:52:21;;;;;;;2.53;1.33;;;6.80;99.90;;;;;;4987841;28;20486;-81
2022/12/28 06:54:47;;;;;;;4.20;1.02;;;6.80;99.90;;;;;;4999396;28;20038;-80
2022/12/28 06:57:14;;;;;;;1.58;0.98;;;6.90;99.90;;;;;;4997029;28;20030;-80
2022/12/28 06:59:40;;;;;;;3.13;0.90;;;6.90;99.90;;;;;;4993040;28;20065;-80
2022/12/28 07:02:05;;;;;;;1.45;0.88;;;6.90;99.90;;;;;;4987149;28;20465;-80
2022/12/28 07:04:31;;;;;;;0.85;0.73;;;7.00;99.90;;;;;;4987538;28;20121;-81
2022/12/28 07:06:56;;;;;;;3.10;0.55;;;7.00;99.90;;;;;;4993493;28;20124;-82
2022/12/28 07:09:22;;;;;;;0.80;0.68;;;7.00;99.90;;;;;;4978707;28;20048;-82
2022/12/28 07:11:48;;;;;;;3.45;1.33;;;7.00;99.90;;;;;;5001988;28;20109;-81
2022/12/28 07:14:14;;;;;;;3.58;1.20;;;7.10;99.90;;;;;;4986790;28;20482;-80
2022/12/28 07:16:40;;;;;;;3.22;1.02;;;7.10;99.90;;;;;;4996392;28;20024;-80
2022/12/28 07:19:05;;;;;;;1.33;0.60;;;7.10;99.90;;;;;;4981012;28;20034;-80
2022/12/28 07:21:32;;;;;;;2.92;1.10;;;7.10;99.90;;;;;;4987271;28;20022;-80
2022/12/28 07:23:58;;;;;;;4.90;1.60;;;7.10;99.90;;;;;;4971683;28;20042;-80
2022/12/28 07:26:28;;;;;;;2.40;0.80;;;7.10;99.90;;;;;;4987080;28;20037;-80
2022/12/28 07:28:54;;;;;;;1.48;0.55;;;7.10;99.90;;;;;;4995070;28;20045;-80
2022/12/28 07:31:22;;;;;;;1.85;0.38;;;7.10;99.90;;;;;;4987260;28;20045;-80
2022/12/28 07:33:48;;;;;;;1.60;0.70;;;7.20;99.90;;;;;;4972855;28;20046;-80
2022/12/28 07:36:15;;;;;;;2.25;0.82;;;7.20;99.90;;;;;;4995147;28;20052;-80
2022/12/28 07:38:41;;;;;;;3.95;1.35;;;7.20;99.90;;;;;;4994723;28;20029;-80
2022/12/28 07:41:14;;;;;;;2.03;0.70;;;7.20;99.90;;;;;;4987332;28;20154;-80
2022/12/28 07:43:40;;;;;;;3.05;1.20;;;7.20;99.90;;;;;;4984664;28;20037;-80
2022/12/28 07:46:10;;;;;;;2.45;1.10;;;7.20;99.90;;;;;;4989361;28;20493;-80
2022/12/28 07:48:36;;;;;;;2.85;1.38;;;7.20;99.90;;;;;;4987348;28;20045;-80
2022/12/28 07:51:21;;;;;;;4.45;2.22;;;7.30;99.90;;;;;;4999903;28;20042;-80
2022/12/28 07:53:48;;;;;;;5.20;1.40;;;7.30;99.90;;;;;;4967360;28;20450;-80
2022/12/28 07:56:13;;;;;;;1.42;0.50;;;7.30;99.90;;;;;;4997653;28;20991;-80
2022/12/28 07:58:39;;;;;;;1.00;0.63;;;7.30;99.90;;;;;;4987107;28;20117;-80
2022/12/28 08:01:12;;;;;;;5.68;1.25;;;7.30;99.90;;;;;;4998198;28;20057;-80
2022/12/28 08:03:37;;;;;;;0.47;0.40;;;7.30;99.90;;;;;;4969476;28;20030;-81
2022/12/28 08:06:17;;;;;;;1.95;0.90;;;7.30;99.90;;;;;;4984059;28;20046;-80
2022/12/28 08:08:43;;;;;;;3.92;1.40;;;7.40;99.90;;;;;;4987080;28;20069;-81
2022/12/28 08:11:11;;;;;;;2.80;1.20;;;7.40;99.90;;;;;;4990682;28;20049;-80
2022/12/28 08:13:38;;;;;;;1.52;1.10;;;7.40;99.90;;;;;;4968679;28;21156;-80
2022/12/28 08:16:04;;;;;;;0.20;0.20;;;7.40;99.90;;;;;;4985009;28;20038;-81
2022/12/28 08:18:29;;;;;;;2.50;0.95;;;7.40;99.90;;;;;;4990622;28;20026;-81
2022/12/28 08:21:09;;;;;;;2.75;0.50;;;7.40;99.90;;;;;;4990801;28;20160;-80
2022/12/28 08:23:35;;;;;;;1.83;0.77;;;7.40;99.90;;;;;;4989781;28;20045;-80
2022/12/28 08:26:12;;;;;;;1.70;0.82;;;7.50;99.90;;;;;;4998318;28;20060;-80
2022/12/28 08:28:38;;;;;;;6.70;0.85;;;7.50;99.90;;;;;;4973734;28;20041;-81
2022/12/28 08:31:12;;;;;;;0.50;0.50;;;7.50;99.90;;;;;;5000856;28;20046;-81
2022/12/28 08:33:40;;;;;;;1.70;1.20;;;7.50;99.90;;;;;;4986129;28;20030;-80
2022/12/28 08:36:07;;;;;;;1.38;1.15;;;7.50;99.90;;;;;;4977039;28;20526;-80
2022/12/28 08:38:33;;;;;;;2.05;0.65;;;7.50;99.90;;;;;;4976063;28;20551;-81
2022/12/28 08:41:00;;;;;;;1.30;0.52;;;7.50;99.90;;;;;;4975972;28;20029;-80
2022/12/28 08:43:26;;;;;;;0.73;0.52;;;7.60;99.90;;;;;;5007924;28;20033;-80
2022/12/28 08:45:58;;;;;;;2.20;0.80;;;7.60;99.90;;;;;;5002153;28;20559;-80
2022/12/28 08:48:25;;;;;;;2.33;0.52;;;7.60;99.90;;;;;;4987374;28;20116;-80
2022/12/28 08:50:51;;;;;;;3.25;0.82;;;7.60;99.90;;;;;;4994211;28;20095;-80
2022/12/28 08:53:17;;;;;;;0.63;0.35;;;7.60;99.90;;;;;;4984540;28;20122;-80
2022/12/28 08:55:42;;;;;;;1.75;0.70;;;7.60;99.90;;;;;;4986156;28;20045;-80
2022/12/28 08:58:08;;;;;;;1.55;0.80;;;7.70;99.90;;;;;;4980950;28;20972;-80
2022/12/28 09:00:34;;;;;;;1.48;0.70;;;7.70;99.90;;;;;;4975242;28;20034;-81
2022/12/28 09:03:00;;;;;;;0.50;0.50;;;7.70;99.90;;;;;;4972443;28;20034;-80
2022/12/28 09:05:25;;;;;;;7.03;0.82;;;7.80;99.90;;;;;;4979600;28;20371;-80
2022/12/28 09:07:51;;;;;;;3.97;0.47;;;7.80;99.90;;;;;;4976690;28;20041;-80
2022/12/28 09:10:17;;;;;;;0.52;0.38;;;7.80;99.90;;;;;;5000538;28;20042;-80
2022/12/28 09:12:42;;;;;;;3.30;0.80;;;7.90;99.90;;;;;;4965200;28;20121;-79
2022/12/28 09:15:08;;;;;;;1.23;0.70;;;7.80;99.90;;;;;;4994821;28;20181;-80
2022/12/28 09:17:34;;;;;;;1.05;0.32;;;7.90;99.90;;;;;;4963195;28;20073;-80
2022/12/28 09:19:59;;;;;;;4.20;0.75;;;7.90;99.90;;;;;;4971663;28;20121;-79
2022/12/28 09:22:25;;;;;;;1.92;0.35;;;7.90;99.90;;;;;;4988110;28;20512;-81
2022/12/28 09:24:50;;;;;;;2.75;0.77;;;7.90;99.90;;;;;;4988247;28;20046;-79
2022/12/28 09:27:16;;;;;;;1.20;0.40;;;8.00;99.90;;;;;;4997235;28;20069;-80
2022/12/28 09:29:42;;;;;;;1.27;0.52;;;8.10;99.90;;;;;;4974863;28;20030;-79
2022/12/28 09:32:07;;;;;;;3.60;0.50;;;8.00;99.90;;;;;;4972549;28;20184;-79
2022/12/28 09:34:34;;;;;;;2.40;0.52;;;8.10;99.90;;;;;;4985023;28;20031;-80
2022/12/28 09:37:00;;;;;;;0.77;0.50;;;8.10;99.90;;;;;;4994669;28;20034;-80
2022/12/28 09:39:26;;;;;;;1.95;0.65;;;8.20;99.90;;;;;;4982521;28;20087;-81
2022/12/28 09:42:20;;;;;;;1.73;0.70;;;8.20;99.90;;;;;;4984053;28;20084;-80
2022/12/28 09:44:59;;;;;;;1.13;0.60;;;8.20;99.90;;;;;;4991943;28;20030;-80
2022/12/28 09:47:40;;;;;;;1.02;0.70;;;8.20;99.90;;;;;;5004245;28;20386;-80
2022/12/28 09:50:15;;;;;;;0.63;0.50;;;8.30;99.90;;;;;;4987696;28;20491;-81
2022/12/28 09:53:23;;;;;;;3.05;1.00;;;8.40;99.90;;;;;;4998539;28;20023;-79
2022/12/28 09:55:59;;;;;;;2.60;0.60;;;8.40;99.90;;;;;;4960405;28;20506;-81
2022/12/28 09:58:24;;;;;;;2.85;0.45;;;8.40;99.90;;;;;;4991526;28;20038;-80
2022/12/28 10:00:54;;;;;;;1.95;0.52;;;8.40;99.90;;;;;;4975248;28;20045;-80
2022/12/28 10:03:22;;;;;;;0.60;0.47;;;8.40;99.90;;;;;;4984995;28;20393;-80
2022/12/28 10:05:49;;;;;;;4.93;0.85;;;8.50;99.90;;;;;;4971944;28;20117;-80
2022/12/28 10:08:17;;;;;;;1.10;0.40;;;8.50;99.90;;;;;;4963930;28;20398;-80
2022/12/28 10:10:42;;;;;;;1.40;0.40;;;8.60;99.90;;;;;;4984691;28;20041;-80
2022/12/28 10:13:17;;;;;;;1.30;0.63;;;8.60;99.90;;;;;;4994421;28;20518;-80
2022/12/28 10:15:42;;;;;;;1.50;0.47;;;8.60;99.90;;;;;;5006029;28;20058;-80
2022/12/28 10:18:08;;;;;;;0.98;0.57;;;8.60;99.90;;;;;;4983433;28;20982;-80
2022/12/28 10:20:34;;;;;;;0.68;0.40;;;8.60;99.90;;;;;;4983939;28;20040;-80
2022/12/28 10:23:00;;;;;;;0.80;0.38;;;8.60;99.90;;;;;;4984938;28;20040;-80
2022/12/28 10:25:25;;;;;;;0.35;0.30;;;8.70;99.90;;;;;;4974399;28;20378;-80
2022/12/28 10:27:51;;;;;;;1.95;0.47;;;8.70;99.90;;;;;;5000506;28;20034;-81
2022/12/28 10:30:25;;;;;;;1.85;0.50;;;8.70;99.90;;;;;;4999503;28;20042;-79
2022/12/28 10:32:56;;;;;;;1.90;0.82;;;8.70;99.90;;;;;;4986116;28;20141;-80
2022/12/28 10:35:32;;;;;;;2.92;0.68;;;8.70;99.90;;;;;;4988386;28;20125;-79
2022/12/28 10:38:03;;;;;;;0.88;0.50;;;8.80;99.90;;;;;;4981342;28;20041;-79
2022/12/28 10:40:31;;;;;;;0.43;0.40;;;8.80;99.90;;;;;;4988242;28;20039;-80
2022/12/28 10:42:57;;;;;;;0.90;0.40;;;8.80;99.90;;;;;;5003189;28;20034;-81
2022/12/28 10:45:37;;;;;;;0.25;0.22;;;8.80;99.90;;;;;;4983353;28;20060;-80
2022/12/28 10:48:13;;;;;;;2.20;0.35;;;8.80;99.90;;;;;;4986166;28;20114;-80
2022/12/28 10:50:47;;;;;;;0.70;0.40;;;8.90;99.90;;;;;;4995716;28;20043;-80
2022/12/28 10:53:30;;;;;;;0.20;0.20;;;8.90;99.90;;;;;;4982683;28;20034;-80
2022/12/28 10:56:03;;;;;;;0.88;0.57;;;9.00;99.90;;;;;;4977329;28;20121;-81
2022/12/28 10:58:28;;;;;;;1.67;0.38;;;9.00;99.90;;;;;;4982913;28;20489;-81
2022/12/28 11:00:55;;;;;;;0.70;0.35;;;9.00;99.90;;;;;;5001077;28;20056;-80
2022/12/28 11:03:24;;;;;;;3.03;0.60;;;9.00;99.90;;;;;;4998093;28;20042;-80
2022/12/28 11:05:49;;;;;;;1.70;0.70;;;9.00;99.90;;;;;;4971209;28;20543;-81
2022/12/28 11:08:15;;;;;;;0.10;0.10;;;9.10;99.90;;;;;;4986937;28;20030;-80
2022/12/28 11:10:40;;;;;;;4.85;0.50;;;9.10;99.90;;;;;;4993622;28;20085;-81
2022/12/28 11:13:17;;;;;;;0.68;0.43;;;9.10;99.90;;;;;;4997833;28;20422;-80
2022/12/28 11:15:43;;;;;;;1.58;0.45;;;9.20;99.90;;;;;;4993364;28;20029;-80
2022/12/28 11:18:14;;;;;;;1.67;0.50;;;9.20;99.90;;;;;;4976785;28;20038;-80
2022/12/28 11:20:42;;;;;;;0.75;0.60;;;9.20;99.90;;;;;;4984049;28;20077;-81
2022/12/28 11:23:08;;;;;;;0.93;0.70;;;9.20;99.90;;;;;;4973551;28;20057;-81
2022/12/28 11:25:34;;;;;;;0.35;0.20;;;9.30;99.90;;;;;;4974693;28;20172;-80
2022/12/28 11:28:04;;;;;;;6.75;0.65;;;9.30;99.90;;;;;;5000483;28;20084;-79
2022/12/28 11:30:30;;;;;;;1.55;0.82;;;9.30;99.90;;;;;;4985126;28;20583;-80
2022/12/28 11:32:58;;;;;;;3.00;0.43;;;9.30;99.90;;;;;;4998220;28;20034;-80
2022/12/28 11:35:35;;;;;;;5.68;0.52;;;9.30;99.90;;;;;;4982067;28;20058;-81
2022/12/28 11:38:02;;;;;;;0.63;0.63;;;9.40;99.90;;;;;;4977250;28;20035;-80
2022/12/28 11:40:43;;;;;;;3.13;0.65;;;9.40;99.90;;;;;;4982177;28;20544;-80
2022/12/28 11:43:28;;;;;;;1.42;0.55;;;9.40;99.90;;;;;;5006191;28;20044;-80
2022/12/28 11:46:00;;;;;;;3.20;0.70;;;9.40;99.90;;;;;;5005103;28;20116;-81
2022/12/28 11:48:41;;;;;;;0.70;0.40;;;9.40;99.90;;;;;;4986766;28;20042;-80
2022/12/28 11:51:19;;;;;;;2.53;0.93;;;9.40;99.90;;;;;;5008939;28;20072;-80
2022/12/28 11:53:45;;;;;;;3.20;0.75;;;9.40;99.90;;;;;;5025183;28;20064;-80
2022/12/28 11:56:14;;;;;;;1.55;0.47;;;9.40;99.90;;;;;;5009208;28;20069;-80
2022/12/28 11:58:39;;;;;;;0.30;0.25;;;9.40;99.90;;;;;;4997841;28;20371;-80
2022/12/28 12:01:07;;;;;;;2.38;0.60;;;9.40;99.90;;;;;;4996908;28;20026;-80
2022/12/28 12:03:57;;;;;;;2.92;0.90;;;9.40;99.90;;;;;;4992487;28;20066;-80
2022/12/28 12:06:42;;;;;;;1.63;1.00;;;9.30;99.90;;;;;;5008910;28;20784;-80
2022/12/28 12:09:20;;;;;;;0.70;0.43;;;9.30;99.90;;;;;;5005730;28;20038;-80
2022/12/28 12:11:46;;;;;;;0.57;0.38;;;9.30;99.90;;;;;;5004470;28;20038;-79
2022/12/28 12:14:11;;;;;;;3.33;0.70;;;9.20;99.90;;;;;;4979397;28;20026;-80
2022/12/28 12:17:02;;;;;;;2.53;1.00;;;9.20;99.90;;;;;;4985130;28;20037;-80
2022/12/28 12:19:35;;;;;;;3.22;1.33;;;9.20;99.90;;;;;;4990949;28;20030;-80
2022/12/28 12:22:15;;;;;;;2.42;1.15;;;9.20;99.90;;;;;;4987757;28;20060;-80
2022/12/28 12:25:03;;;;;;;3.35;0.40;;;9.10;99.90;;;;;;5004738;28;20116;-80
2022/12/28 12:27:32;;;;;;;1.67;0.65;;;9.10;99.90;;;;;;4988639;28;20504;-80
2022/12/28 12:30:16;;;;;;;2.03;0.75;;;9.10;99.90;;;;;;5008961;28;20034;-81
2022/12/28 12:32:53;;;;;;;0.75;0.55;;;9.10;99.90;;;;;;5007399;28;20030;-80
2022/12/28 12:35:28;;;;;;;0.80;0.80;;;9.10;99.90;;;;;;4989025;28;20064;-81
2022/12/28 12:37:55;;;;;;;5.20;1.00;;;9.10;99.90;;;;;;4983587;28;20406;-81
2022/12/28 12:40:26;;;;;;;0.77;0.40;;;9.10;99.90;;;;;;4991239;28;20579;-81
2022/12/28 12:43:06;;;;;;;0.90;0.65;;;9.00;99.90;;;;;;5009039;28;20120;-81
2022/12/28 12:45:50;;;;;;;2.72;0.90;;;9.00;99.90;;;;;;5007048;28;20030;-81
2022/12/28 12:48:36;;;;;;;1.08;0.65;;;9.00;99.90;;;;;;5008472;28;20041;-82
2022/12/28 12:51:23;;;;;;;1.48;0.82;;;9.00;99.90;;;;;;5001921;28;20453;-81
2022/12/28 12:54:15;;;;;;;1.42;0.60;;;9.00;99.90;;;;;;4985724;28;20650;-81
2022/12/28 12:57:02;;;;;;;1.58;0.77;;;8.90;99.90;;;;;;5008261;28;20026;-81
2022/12/28 12:59:49;;;;;;;3.00;0.40;;;8.90;99.90;;;;;;4990035;28;20076;-81
2022/12/28 13:02:52;;;;;;;0.57;0.40;;;8.90;99.90;;;;;;5006506;28;20041;-81
2022/12/28 13:05:22;;;;;;;2.83;1.15;;;8.80;99.90;;;;;;5007454;28;20037;-81
2022/12/28 13:07:48;;;;;;;0.55;0.45;;;8.80;99.90;;;;;;4976783;28;20057;-82
2022/12/28 13:10:18;;;;;;;3.38;0.57;;;8.80;99.90;;;;;;4971328;28;20039;-81
2022/12/28 13:12:44;;;;;;;5.10;0.70;;;8.80;99.90;;;;;;5000250;28;20125;-81
2022/12/28 13:15:14;;;;;;;0.98;0.38;;;8.80;99.90;;;;;;4987649;28;20117;-81
2022/12/28 13:17:59;;;;;;;2.00;0.40;;;8.70;99.90;;;;;;4989257;28;20131;-80
2022/12/28 13:20:25;;;;;;;2.20;1.02;;;8.70;99.90;;;;;;4653183;28;9999977;-81
2022/12/28 13:22:51;;;;;;;2.03;0.82;;;8.70;99.90;;;;;;4631446;28;10000576;-81
2022/12/28 13:25:30;;;;;;;3.50;0.95;;;8.70;99.90;;;;;;5008700;28;20073;-81
2022/12/28 13:27:56;;;;;;;1.38;0.68;;;8.70;99.90;;;;;;4987719;28;20041;-81
2022/12/28 13:30:22;;;;;;;2.78;0.60;;;8.70;99.90;;;;;;4987569;28;20482;-82
2022/12/28 13:32:52;;;;;;;1.88;0.65;;;8.60;99.90;;;;;;4984020;28;20085;-81
2022/12/28 13:35:21;;;;;;;2.85;0.88;;;8.70;99.90;;;;;;4975142;28;20095;-82
2022/12/28 13:38:08;;;;;;;3.75;0.77;;;8.60;99.90;;;;;;5001038;28;20033;-81